EDFH/HHN METAR and TAF weather

Enter ICAO airport designator
Station Type Date Time Source
EDFH METAR 2019/02/23 02:50 UTC NOAA

EDFH 230250Z 11007KT 080V160 9999 FEW007 02/02 Q1036


Station Type Date Time Source
EDFH Decoded METAR 2019/02/23 02:50 UTC NOAA

Hahn, Germany (EDFH) 49-57N 007-16E 498M
Feb 22, 2019 - 09:50 PM EST / 2019.02.23 0250 UTC
Wind: from the ESE (110 degrees) at 8 MPH (7 KT) (direction variable):0
Visibility: greater than 7 mile(s):0
Sky conditions: mostly clear
Temperature: 35 F (2 C)
Windchill: 28 F (-2 C):1
Dew Point: 35 F (2 C)
Relative Humidity: 100%
Pressure (altimeter): 30.59 in. Hg (1036 hPa)
ob: EDFH 230250Z 11007KT 080V160 9999 FEW007 02/02 Q1036
cycle: 3

Station Type Date Time Source
EDFH TAF 2019/02/22 18:27 UTC NOAA

TAF EDFH 221700Z 2218/2318 08006KT CAVOK
BECMG 2218/2221 12012KT PROB40
TEMPO 2303/2309 0800 BCFG BKN002
TEMPO 2308/2318 12015G25KT


Example: see airport list